createdAt,value
2023-05-03T00:08:40.206Z,76.01
2023-05-03T00:18:11.930Z,75.19
2023-05-03T00:27:45.896Z,74.75
2023-05-03T00:37:19.438Z,75.46
2023-05-03T00:46:53.148Z,76.18
2023-05-03T00:56:29.575Z,76.92
2023-05-03T01:06:00.046Z,77.17
2023-05-03T01:15:33.671Z,77.36
2023-05-03T01:25:07.353Z,77.97
2023-05-03T01:34:40.980Z,77.95
2023-05-03T01:44:14.300Z,77.37
2023-05-03T01:53:49.896Z,76.83
2023-05-03T02:03:22.083Z,77.19
2023-05-03T02:12:55.438Z,77.29
2023-05-03T02:22:30.749Z,77.99
2023-05-03T02:32:04.437Z,77.08
2023-05-03T02:41:36.053Z,77.67
2023-05-03T02:51:11.450Z,77.56
2023-05-03T03:00:43.563Z,77.52
2023-05-03T03:10:17.246Z,78.24
2023-05-03T03:19:53.039Z,77.39
2023-05-03T03:29:25.075Z,77.60
2023-05-03T03:39:00.626Z,77.35
2023-05-03T03:48:32.705Z,77.29
2023-05-03T03:58:08.309Z,77.59
2023-05-03T04:07:40.252Z,77.87
2023-05-03T04:17:15.549Z,78.42
2023-05-03T04:26:49.591Z,79.36
2023-05-03T04:36:23.565Z,80.71
2023-05-03T04:45:55.389Z,81.28
2023-05-03T04:55:31.413Z,80.18
2023-05-03T05:05:03.841Z,78.70
2023-05-03T05:14:38.068Z,77.21
2023-05-03T05:24:12.607Z,77.16
2023-05-03T05:33:47.164Z,76.08
2023-05-03T05:43:24.196Z,74.55
2023-05-03T05:52:57.307Z,75.78
2023-05-03T06:02:31.450Z,74.83
2023-05-03T06:12:03.733Z,72.95
2023-05-03T06:21:39.535Z,71.71
2023-05-03T06:22:43.524Z,71.50
2023-05-03T06:32:15.280Z,70.89
2023-05-03T06:33:19.381Z,70.80
2023-05-03T06:34:21.709Z,70.12
2023-05-03T06:35:25.793Z,69.96
2023-05-03T06:36:29.677Z,69.90
2023-05-03T06:46:00.916Z,70.13
2023-05-03T06:47:04.979Z,70.16
2023-05-03T06:48:08.962Z,68.63
2023-05-03T06:49:11.282Z,68.30
2023-05-03T06:50:13.704Z,68.05
2023-05-03T06:51:17.695Z,67.24
2023-05-03T06:52:19.995Z,67.11
2023-05-03T06:53:24.012Z,66.91
2023-05-03T06:54:27.990Z,66.63
2023-05-03T06:55:31.856Z,66.31
2023-05-03T06:56:34.160Z,66.96
2023-05-03T06:57:38.296Z,68.02
2023-05-03T06:58:43.182Z,68.14
2023-05-03T06:59:47.055Z,68.30
2023-05-03T07:00:49.328Z,67.90
2023-05-03T07:01:51.764Z,67.77
2023-05-03T07:02:54.126Z,67.52
2023-05-03T07:03:58.288Z,68.22
2023-05-03T07:05:00.508Z,67.33
2023-05-03T07:06:04.553Z,67.07
2023-05-03T07:07:08.519Z,67.92
2023-05-03T07:08:10.737Z,66.97
2023-05-03T07:09:14.821Z,68.33
2023-05-03T07:10:17.332Z,68.92
2023-05-03T07:11:19.895Z,67.38
2023-05-03T07:20:53.702Z,68.43
2023-05-03T07:21:57.391Z,69.39
2023-05-03T07:23:01.324Z,69.47
2023-05-03T07:24:05.269Z,67.76
2023-05-03T07:25:07.634Z,68.04
2023-05-03T07:26:15.646Z,67.66
2023-05-03T07:27:19.365Z,67.19
2023-05-03T07:28:23.239Z,66.46
2023-05-03T07:29:25.548Z,66.60
2023-05-03T07:30:27.952Z,67.24
2023-05-03T07:31:30.381Z,67.46
2023-05-03T07:41:04.309Z,66.32
2023-05-03T07:42:06.645Z,66.19
2023-05-03T07:43:09.105Z,65.84
2023-05-03T07:44:13.159Z,65.21
2023-05-03T07:45:17.438Z,65.84
2023-05-03T07:46:19.763Z,64.48
2023-05-03T07:47:22.175Z,65.33
2023-05-03T07:48:24.622Z,64.91
2023-05-03T07:49:27.039Z,66.53
2023-05-03T07:50:29.456Z,65.36
2023-05-03T07:51:33.496Z,64.54
2023-05-03T07:52:37.409Z,64.39
2023-05-03T07:53:39.674Z,63.41
2023-05-03T07:54:42.103Z,63.62
2023-05-03T07:55:44.701Z,64.04
2023-05-03T07:56:48.736Z,64.82
2023-05-03T07:57:51.102Z,64.65
2023-05-03T07:59:05.056Z,65.79
2023-05-03T07:59:57.636Z,63.98
2023-05-03T08:01:01.725Z,63.98
2023-05-03T08:02:04.084Z,63.61
2023-05-03T08:03:08.192Z,64.05
2023-05-03T08:04:12.157Z,65.52
2023-05-03T08:05:14.504Z,63.09
2023-05-03T08:06:16.780Z,63.00
2023-05-03T08:07:19.198Z,63.59
2023-05-03T08:08:21.602Z,63.48
2023-05-03T08:09:25.705Z,64.49
2023-05-03T08:10:29.602Z,62.89
2023-05-03T08:11:31.886Z,62.70
2023-05-03T08:12:34.322Z,62.54
2023-05-03T08:13:38.367Z,62.34
2023-05-03T08:14:40.694Z,61.63
2023-05-03T08:15:43.133Z,63.04
2023-05-03T08:16:47.243Z,61.62
2023-05-03T08:17:51.272Z,61.23
2023-05-03T08:18:55.052Z,61.58
2023-05-03T08:19:59.244Z,61.77
2023-05-03T08:21:01.539Z,61.61
2023-05-03T08:22:03.967Z,60.56
2023-05-03T08:23:07.958Z,60.51
2023-05-03T08:24:10.315Z,60.75
2023-05-03T08:25:12.814Z,60.66
2023-05-03T08:26:16.900Z,61.33
2023-05-03T08:27:19.667Z,61.57
2023-05-03T08:28:22.038Z,62.92
2023-05-03T08:29:27.659Z,61.84
2023-05-03T08:30:30.108Z,61.54
2023-05-03T08:31:32.489Z,60.84
2023-05-03T08:32:35.095Z,61.43
2023-05-03T08:33:39.103Z,62.34
2023-05-03T08:34:43.241Z,61.92
2023-05-03T08:35:49.215Z,60.13
2023-05-03T08:45:18.031Z,60.98
2023-05-03T08:46:20.443Z,60.52
2023-05-03T08:47:23.070Z,60.50
2023-05-03T08:48:26.040Z,58.25
2023-05-03T08:49:30.105Z,58.56
2023-05-03T08:50:32.482Z,59.70
2023-05-03T08:51:36.980Z,59.96
2023-05-03T08:52:39.235Z,57.53
2023-05-03T08:53:47.599Z,57.34
2023-05-03T08:54:50.269Z,57.09
2023-05-03T09:04:25.156Z,61.62
2023-05-03T09:05:28.572Z,59.57
2023-05-03T09:06:31.409Z,59.06
2023-05-03T09:07:35.992Z,60.41
2023-05-03T09:08:43.991Z,59.63
2023-05-03T09:09:47.200Z,58.36
2023-05-03T09:10:51.816Z,58.77
2023-05-03T09:11:54.143Z,58.61
2023-05-03T09:12:58.959Z,57.00
2023-05-03T09:14:01.842Z,57.93
2023-05-03T09:15:06.039Z,57.24
2023-05-03T09:16:13.957Z,56.40
2023-05-03T09:17:17.651Z,57.95
2023-05-03T09:18:21.662Z,56.26
2023-05-03T09:19:23.881Z,56.25
2023-05-03T09:20:26.318Z,55.45
2023-05-03T09:21:30.302Z,54.63
2023-05-03T09:22:34.298Z,56.88
2023-05-03T09:23:36.515Z,54.79
2023-05-03T09:24:38.983Z,56.10
2023-05-03T09:25:41.416Z,58.10
2023-05-03T09:26:43.925Z,56.42
2023-05-03T09:27:47.370Z,55.75
2023-05-03T09:28:49.733Z,56.87
2023-05-03T09:29:53.784Z,57.69
2023-05-03T09:30:56.067Z,55.69
2023-05-03T09:31:58.597Z,55.15
2023-05-03T09:33:01.069Z,56.22
2023-05-03T09:34:03.445Z,55.18
2023-05-03T09:35:07.507Z,56.02
2023-05-03T09:36:09.869Z,57.96
2023-05-03T09:37:13.914Z,54.38
2023-05-03T09:38:16.278Z,55.23
2023-05-03T09:39:20.384Z,54.68
2023-05-03T09:40:22.753Z,55.69
2023-05-03T09:41:25.253Z,56.47
2023-05-03T09:42:29.354Z,52.85
2023-05-03T09:43:31.628Z,54.13
2023-05-03T09:44:35.710Z,55.38
2023-05-03T09:45:38.063Z,54.47
2023-05-03T09:46:42.067Z,53.45
2023-05-03T09:47:44.371Z,53.07
2023-05-03T09:48:46.866Z,53.34
2023-05-03T09:49:50.791Z,54.75
2023-05-03T09:50:53.148Z,55.38
2023-05-03T09:51:57.247Z,55.95
2023-05-03T09:53:01.208Z,53.67
2023-05-03T09:54:05.175Z,54.69
2023-05-03T09:55:07.530Z,52.78
2023-05-03T09:56:11.661Z,51.88
2023-05-03T09:57:13.983Z,53.41
2023-05-03T09:58:16.387Z,51.64
2023-05-03T09:59:18.946Z,53.47
2023-05-03T10:00:22.961Z,55.77
2023-05-03T10:01:26.913Z,55.55
2023-05-03T10:02:29.215Z,52.66
2023-05-03T10:03:31.660Z,52.78
2023-05-03T10:04:35.736Z,53.67
2023-05-03T10:05:38.096Z,51.11
2023-05-03T10:06:42.239Z,52.52
2023-05-03T10:07:44.414Z,50.94
2023-05-03T10:08:46.892Z,51.24
2023-05-03T10:09:50.903Z,51.05
2023-05-03T10:10:53.244Z,50.89
2023-05-03T10:11:55.781Z,50.44
2023-05-03T10:12:57.989Z,52.86
2023-05-03T10:14:00.423Z,52.66
2023-05-03T10:15:03.089Z,52.75
2023-05-03T10:16:06.999Z,51.91
2023-05-03T10:17:10.353Z,52.15
2023-05-03T10:18:12.722Z,51.09
2023-05-03T10:19:15.232Z,50.65
2023-05-03T10:20:17.527Z,52.59
2023-05-03T10:21:20.055Z,52.20
2023-05-03T10:22:22.420Z,51.51
2023-05-03T10:23:26.454Z,52.29
2023-05-03T10:24:28.767Z,53.20
2023-05-03T10:25:31.150Z,52.74
2023-05-03T10:26:33.620Z,51.63
2023-05-03T10:27:37.683Z,53.95
2023-05-03T10:28:40.064Z,51.63
2023-05-03T10:29:42.499Z,51.68
2023-05-03T10:30:46.569Z,51.84
2023-05-03T10:31:50.479Z,51.18
2023-05-03T10:32:54.462Z,52.30
2023-05-03T10:33:56.758Z,53.63
2023-05-03T10:35:00.829Z,52.87
2023-05-03T10:36:03.067Z,53.58
2023-05-03T10:37:07.344Z,51.78
2023-05-03T10:38:09.839Z,52.22
2023-05-03T10:39:13.869Z,52.94
2023-05-03T10:40:17.811Z,51.31
2023-05-03T10:41:20.228Z,52.96
2023-05-03T10:42:24.207Z,52.44
2023-05-03T10:43:28.165Z,53.90
2023-05-03T10:44:32.057Z,50.11
2023-05-03T10:45:36.227Z,51.71
2023-05-03T10:46:40.194Z,51.28
2023-05-03T10:47:42.615Z,50.46
2023-05-03T10:48:45.014Z,52.87
2023-05-03T10:49:48.994Z,50.74
2023-05-03T10:50:51.349Z,51.69
2023-05-03T10:51:53.817Z,50.80
2023-05-03T10:52:56.268Z,50.78
2023-05-03T10:53:58.692Z,50.31
2023-05-03T10:55:01.425Z,50.66
2023-05-03T10:56:03.591Z,49.99
2023-05-03T10:57:06.097Z,50.72
2023-05-03T10:58:08.519Z,53.09
2023-05-03T10:59:12.646Z,50.54
2023-05-03T11:00:16.608Z,51.37
2023-05-03T11:01:19.144Z,51.81
2023-05-03T11:02:23.058Z,50.90
2023-05-03T11:03:25.418Z,50.00
2023-05-03T11:04:31.623Z,51.07
2023-05-03T11:05:31.891Z,50.98
2023-05-03T11:06:36.408Z,51.38
2023-05-03T11:07:38.268Z,49.84
2023-05-03T11:08:40.719Z,51.46
2023-05-03T11:09:43.177Z,49.50
2023-05-03T11:10:45.650Z,52.65
2023-05-03T11:11:48.121Z,50.05
2023-05-03T11:12:50.644Z,49.18
2023-05-03T11:13:53.073Z,51.43
2023-05-03T11:14:57.185Z,50.64
2023-05-03T11:15:59.494Z,50.31
2023-05-03T11:17:02.023Z,52.20
2023-05-03T11:18:06.076Z,47.28
2023-05-03T11:19:08.405Z,49.68
2023-05-03T11:20:10.803Z,49.08
2023-05-03T11:21:13.338Z,49.70
2023-05-03T11:22:15.763Z,49.30
2023-05-03T11:23:18.231Z,47.96
2023-05-03T11:24:20.704Z,45.87
2023-05-03T11:25:23.165Z,44.96
2023-05-03T11:26:27.415Z,45.64
2023-05-03T11:27:29.582Z,46.46
2023-05-03T11:28:35.031Z,47.12
2023-05-03T11:29:38.894Z,47.21
2023-05-03T11:30:41.229Z,47.37
2023-05-03T11:31:45.274Z,47.90
2023-05-03T11:32:47.695Z,47.23
2023-05-03T11:33:50.122Z,48.26
2023-05-03T11:34:54.222Z,46.79
2023-05-03T11:35:58.195Z,45.49
2023-05-03T11:37:00.471Z,47.95
2023-05-03T11:38:02.931Z,47.57
2023-05-03T11:39:05.486Z,47.00
2023-05-03T11:40:08.089Z,47.37
2023-05-03T11:41:10.512Z,48.68
2023-05-03T11:42:13.045Z,49.18
2023-05-03T11:43:17.284Z,44.88
2023-05-03T11:44:21.264Z,45.10
2023-05-03T11:45:23.613Z,47.16
2023-05-03T11:46:26.160Z,47.74
2023-05-03T11:47:30.285Z,46.79
2023-05-03T11:48:32.634Z,47.97
2023-05-03T11:49:34.969Z,45.96
2023-05-03T11:50:37.484Z,47.05
2023-05-03T11:51:41.520Z,47.46
2023-05-03T11:52:43.933Z,46.24
2023-05-03T11:53:46.387Z,45.98
2023-05-03T11:54:50.439Z,45.09
2023-05-03T11:55:52.779Z,46.91
2023-05-03T11:56:55.253Z,43.70
2023-05-03T11:57:59.348Z,46.21
2023-05-03T11:59:03.323Z,48.03
2023-05-03T12:00:07.209Z,46.99
2023-05-03T12:01:09.553Z,48.82
2023-05-03T12:02:12.176Z,44.96
2023-05-03T12:03:14.761Z,47.24
2023-05-03T12:04:17.152Z,47.64
2023-05-03T12:05:20.518Z,45.69
2023-05-03T12:06:23.970Z,45.14
2023-05-03T12:07:27.557Z,45.07
2023-05-03T12:08:30.678Z,46.06
2023-05-03T12:09:32.466Z,46.89
2023-05-03T12:10:35.784Z,45.19
2023-05-03T12:11:39.695Z,44.84
2023-05-03T12:12:43.743Z,45.59
2023-05-03T12:13:44.179Z,46.36
2023-05-03T12:14:46.258Z,46.22
2023-05-03T12:15:59.748Z,45.32
2023-05-03T12:16:53.226Z,43.86
2023-05-03T12:17:56.993Z,46.85
2023-05-03T12:19:01.804Z,46.16
2023-05-03T12:21:28.906Z,43.46
2023-05-03T12:22:23.343Z,44.01
2023-05-03T12:23:11.009Z,42.06
2023-05-03T12:24:15.027Z,46.10
2023-05-03T12:25:20.068Z,46.10
2023-05-03T12:26:19.430Z,44.65
2023-05-03T12:27:24.091Z,42.16
2023-05-03T12:28:26.158Z,43.87
2023-05-03T12:29:30.218Z,41.51
2023-05-03T12:30:33.924Z,42.81
2023-05-03T12:31:35.201Z,43.55
2023-05-03T12:32:39.006Z,41.70
2023-05-03T12:33:43.598Z,42.08
2023-05-03T12:34:46.847Z,42.52
2023-05-03T12:35:52.662Z,44.21
2023-05-03T12:36:54.093Z,42.99
2023-05-03T12:37:56.335Z,43.04
2023-05-03T12:39:01.605Z,39.78
2023-05-03T12:40:24.704Z,39.29
2023-05-03T12:41:08.711Z,39.89
2023-05-03T12:42:08.419Z,41.74
2023-05-03T12:43:11.648Z,44.51
2023-05-03T12:44:16.609Z,43.12
2023-05-03T12:45:17.377Z,39.88
2023-05-03T12:46:33.624Z,43.66
2023-05-03T12:47:28.214Z,41.08
2023-05-03T12:48:25.605Z,42.42
2023-05-03T12:49:29.622Z,43.48
2023-05-03T12:50:37.819Z,44.09
2023-05-03T12:51:36.362Z,38.19
2023-05-03T12:52:40.166Z,40.51
2023-05-03T12:53:47.000Z,39.42
2023-05-03T12:54:48.742Z,37.17
2023-05-03T12:55:51.585Z,40.85
2023-05-03T12:56:55.178Z,37.30
2023-05-03T12:58:17.106Z,38.00
2023-05-03T12:59:22.325Z,37.11
2023-05-03T13:00:03.017Z,36.58
2023-05-03T13:01:37.746Z,37.11
2023-05-03T13:03:12.522Z,38.55
2023-05-03T13:03:19.519Z,37.28
2023-05-03T13:06:18.484Z,38.46
2023-05-03T13:07:27.810Z,37.92
2023-05-03T13:08:31.183Z,40.81
2023-05-03T13:09:36.117Z,36.77
2023-05-03T13:10:29.814Z,38.32
2023-05-03T13:11:32.396Z,35.83
2023-05-03T13:12:34.784Z,35.22
2023-05-03T13:13:38.849Z,37.47
2023-05-03T13:14:41.294Z,37.88
2023-05-03T13:15:45.334Z,37.29
2023-05-03T13:16:49.489Z,39.29
2023-05-03T13:17:52.201Z,35.09
2023-05-03T13:18:54.215Z,39.12
2023-05-03T13:19:58.387Z,37.25
2023-05-03T13:21:00.810Z,36.12
2023-05-03T13:22:03.252Z,40.36
2023-05-03T13:23:07.434Z,37.63
2023-05-03T13:24:11.423Z,34.91
2023-05-03T13:25:15.442Z,37.94
2023-05-03T13:26:17.813Z,35.60
2023-05-03T13:27:21.882Z,34.72
2023-05-03T13:28:25.785Z,33.46
2023-05-03T13:29:28.129Z,33.45
2023-05-03T13:30:30.685Z,34.02
2023-05-03T13:31:34.846Z,34.46
2023-05-03T13:32:37.178Z,36.53
2023-05-03T13:33:39.613Z,36.74
2023-05-03T13:34:43.702Z,38.24
2023-05-03T13:35:48.200Z,38.17
2023-05-03T13:36:48.749Z,38.13
2023-05-03T13:37:52.854Z,34.92
2023-05-03T13:38:55.309Z,35.21
2023-05-03T13:39:59.351Z,35.29
2023-05-03T13:41:01.790Z,34.93
2023-05-03T13:42:04.213Z,35.90
2023-05-03T13:43:06.734Z,37.35
2023-05-03T13:44:09.283Z,35.08
2023-05-03T13:45:11.765Z,34.52
2023-05-03T13:46:14.367Z,34.33
2023-05-03T13:47:16.776Z,35.38
2023-05-03T13:48:20.924Z,33.60
2023-05-03T13:49:24.797Z,34.46
2023-05-03T13:50:28.768Z,35.11
2023-05-03T13:51:31.109Z,34.06
2023-05-03T13:52:33.643Z,38.46
2023-05-03T13:53:36.099Z,37.71
2023-05-03T13:54:38.687Z,35.37
2023-05-03T13:55:42.804Z,35.17
2023-05-03T13:56:45.105Z,34.82
2023-05-03T13:57:49.214Z,32.88
2023-05-03T13:58:51.591Z,32.65
2023-05-03T13:59:55.760Z,32.19
2023-05-03T14:00:58.181Z,31.44
2023-05-03T14:02:00.681Z,32.64
2023-05-03T14:03:03.191Z,33.58
2023-05-03T14:04:05.869Z,32.77
2023-05-03T14:05:08.289Z,36.21
2023-05-03T14:06:12.318Z,30.71
2023-05-03T14:07:14.700Z,31.14
2023-05-03T14:08:18.782Z,31.78
2023-05-03T14:09:21.231Z,35.90
2023-05-03T14:10:25.334Z,35.87
2023-05-03T14:11:29.317Z,32.62
2023-05-03T14:12:31.839Z,35.13
2023-05-03T14:13:43.778Z,35.00
2023-05-03T14:14:36.978Z,37.33
2023-05-03T14:15:41.044Z,38.11
2023-05-03T14:16:43.408Z,31.62
2023-05-03T14:17:47.515Z,33.01
2023-05-03T14:18:49.944Z,32.59
2023-05-03T14:19:54.212Z,32.33
2023-05-03T14:20:58.196Z,30.96
2023-05-03T14:22:02.113Z,33.08
2023-05-03T14:23:04.377Z,33.21
2023-05-03T14:24:08.540Z,36.71
2023-05-03T14:25:10.947Z,36.55
2023-05-03T14:26:13.398Z,36.28
2023-05-03T14:27:15.972Z,35.75
2023-05-03T14:28:20.168Z,38.42
2023-05-03T14:29:22.508Z,33.16
2023-05-03T14:30:26.583Z,32.34
2023-05-03T14:31:29.143Z,34.50
2023-05-03T14:32:33.147Z,36.96
2023-05-03T14:33:37.102Z,37.16
2023-05-03T14:34:41.279Z,35.27
2023-05-03T14:35:45.232Z,32.57
2023-05-03T14:36:47.599Z,32.28
2023-05-03T14:37:50.065Z,34.19
2023-05-03T14:38:52.543Z,36.17
2023-05-03T14:39:56.635Z,32.76
2023-05-03T14:41:00.615Z,31.98
2023-05-03T14:42:04.582Z,33.30
2023-05-03T14:43:06.925Z,35.25
2023-05-03T14:44:09.466Z,33.94
2023-05-03T14:45:12.631Z,30.43
2023-05-03T14:46:14.414Z,33.49
2023-05-03T14:47:16.958Z,32.09
2023-05-03T14:48:19.427Z,34.27
2023-05-03T14:49:23.572Z,34.69
2023-05-03T14:50:25.982Z,31.71
2023-05-03T14:51:30.079Z,31.90
2023-05-03T14:52:32.407Z,29.53
2023-05-03T14:53:36.511Z,29.09
2023-05-03T14:54:40.724Z,31.29
2023-05-03T14:55:42.896Z,32.35
2023-05-03T14:56:45.420Z,35.61
2023-05-03T14:57:49.525Z,31.25
2023-05-03T14:58:51.841Z,30.33
2023-05-03T14:59:54.371Z,34.02
2023-05-03T15:00:56.946Z,32.98
2023-05-03T15:02:01.082Z,32.98
2023-05-03T15:03:05.135Z,33.63
2023-05-03T15:04:09.033Z,33.85
2023-05-03T15:05:11.361Z,29.97
2023-05-03T15:06:13.862Z,32.92
2023-05-03T15:07:18.020Z,31.18
2023-05-03T15:08:21.991Z,31.48
2023-05-03T15:09:24.387Z,32.89
2023-05-03T15:10:28.492Z,33.36
2023-05-03T15:11:30.858Z,29.78
2023-05-03T15:12:35.206Z,29.14
2023-05-03T15:13:37.541Z,29.87
2023-05-03T15:14:41.613Z,29.32
2023-05-03T15:15:43.955Z,28.88
2023-05-03T15:16:48.015Z,29.71
2023-05-03T15:17:50.371Z,29.70
2023-05-03T15:18:52.911Z,31.84
2023-05-03T15:19:55.388Z,35.07
2023-05-03T15:20:59.545Z,31.06
2023-05-03T15:22:01.931Z,32.74
2023-05-03T15:23:06.018Z,33.95
2023-05-03T15:24:08.429Z,31.38
2023-05-03T15:25:10.929Z,29.09
2023-05-03T15:26:15.049Z,31.98
2023-05-03T15:27:19.022Z,31.38
2023-05-03T15:28:23.035Z,33.99
2023-05-03T15:29:25.485Z,29.15
2023-05-03T15:30:27.940Z,28.69
2023-05-03T15:31:32.254Z,28.60
2023-05-03T15:41:01.388Z,31.42
2023-05-03T15:42:05.505Z,34.34
2023-05-03T15:43:07.938Z,34.78
2023-05-03T15:44:12.088Z,31.68
2023-05-03T15:45:16.106Z,31.03
2023-05-03T15:46:18.486Z,31.85
2023-05-03T15:47:22.636Z,33.24
2023-05-03T15:48:26.610Z,30.17
2023-05-03T15:49:28.938Z,30.66
2023-05-03T15:50:31.398Z,31.99
2023-05-03T15:51:35.515Z,31.26
2023-05-03T15:52:39.531Z,30.47
2023-05-03T15:53:41.896Z,31.83
2023-05-03T15:54:46.179Z,31.13
2023-05-03T15:55:50.170Z,29.15
2023-05-03T15:56:52.516Z,29.75
2023-05-03T15:57:55.060Z,31.16
2023-05-03T15:58:59.162Z,30.87
2023-05-03T16:00:01.623Z,31.69
2023-05-03T16:01:04.142Z,31.21
2023-05-03T16:02:06.700Z,29.00
2023-05-03T16:03:10.670Z,29.62
2023-05-03T16:04:14.616Z,30.90
2023-05-03T16:05:18.594Z,30.11
2023-05-03T16:06:20.958Z,28.92
2023-05-03T16:07:25.077Z,31.32
2023-05-03T16:08:27.428Z,31.94
2023-05-03T16:09:31.548Z,30.90
2023-05-03T16:10:33.918Z,30.99
2023-05-03T16:11:36.465Z,32.00
2023-05-03T16:12:40.600Z,31.60
2023-05-03T16:13:44.608Z,31.64
2023-05-03T16:14:48.568Z,32.16
2023-05-03T16:15:52.778Z,30.74
2023-05-03T16:16:54.939Z,32.03
2023-05-03T16:17:57.475Z,30.42
2023-05-03T16:18:59.933Z,33.88
2023-05-03T16:20:02.610Z,30.63
2023-05-03T16:21:04.962Z,29.30
2023-05-03T16:22:13.392Z,30.00
2023-05-03T16:23:15.453Z,29.38
2023-05-03T16:24:17.979Z,30.11
2023-05-03T16:25:22.272Z,31.92
2023-05-03T16:26:24.656Z,28.93
2023-05-03T16:27:28.782Z,30.66
2023-05-03T16:28:32.729Z,31.84
2023-05-03T16:29:36.740Z,31.76
2023-05-03T16:30:40.727Z,30.33
2023-05-03T16:31:44.710Z,30.80
2023-05-03T16:32:47.036Z,30.12
2023-05-03T16:33:49.527Z,29.16
2023-05-03T16:34:52.071Z,30.55
2023-05-03T16:35:54.575Z,32.27
2023-05-03T16:36:58.653Z,31.83
2023-05-03T16:38:02.730Z,34.00
2023-05-03T16:39:05.034Z,31.38
2023-05-03T16:40:07.709Z,30.77
2023-05-03T16:41:10.384Z,33.46
2023-05-03T16:42:14.320Z,31.87
2023-05-03T16:43:16.693Z,29.86
2023-05-03T16:44:19.215Z,30.61
2023-05-03T16:45:21.736Z,29.99
2023-05-03T16:46:25.863Z,29.36
2023-05-03T16:47:29.876Z,30.30
2023-05-03T16:48:32.188Z,30.93
2023-05-03T16:49:36.289Z,32.39
2023-05-03T16:50:40.296Z,31.84
2023-05-03T16:51:42.678Z,30.85
2023-05-03T16:52:45.119Z,31.34
2023-05-03T16:53:49.184Z,31.78
2023-05-03T16:54:53.175Z,31.77
2023-05-03T16:55:55.500Z,32.39
2023-05-03T16:56:59.649Z,30.75
2023-05-03T16:58:01.972Z,30.63
2023-05-03T16:59:06.150Z,31.83
2023-05-03T17:00:10.470Z,30.82
2023-05-03T17:01:12.518Z,33.11
2023-05-03T17:02:14.994Z,33.03
2023-05-03T17:03:17.503Z,33.04
2023-05-03T17:04:19.973Z,33.07
2023-05-03T17:05:22.500Z,30.99
2023-05-03T17:06:24.929Z,31.53
2023-05-03T17:07:27.437Z,32.17
2023-05-03T17:08:31.488Z,32.13
2023-05-03T17:09:33.870Z,31.40
2023-05-03T17:10:36.347Z,32.41
2023-05-03T17:11:38.778Z,32.21
2023-05-03T17:12:42.937Z,32.65
2023-05-03T17:13:45.266Z,33.67
2023-05-03T17:14:47.779Z,34.24
2023-05-03T17:15:51.952Z,33.82
2023-05-03T17:16:55.886Z,34.27
2023-05-03T17:18:01.302Z,33.34
2023-05-03T17:19:02.167Z,34.85
2023-05-03T17:20:06.365Z,34.59
2023-05-03T17:21:10.268Z,34.11
2023-05-03T17:22:14.248Z,32.65
2023-05-03T17:23:19.930Z,34.49
2023-05-03T17:24:22.169Z,34.32
2023-05-03T17:25:26.076Z,34.09
2023-05-03T17:26:30.076Z,33.11
2023-05-03T17:27:33.982Z,33.80
2023-05-03T17:28:36.282Z,33.32
2023-05-03T17:29:38.725Z,34.43
2023-05-03T17:30:42.815Z,34.11
2023-05-03T17:31:46.762Z,33.92
2023-05-03T17:32:50.736Z,34.56
2023-05-03T17:33:53.112Z,34.37
2023-05-03T17:34:55.598Z,33.77
2023-05-03T17:35:58.076Z,35.04
2023-05-03T17:37:00.576Z,35.13
2023-05-03T17:38:03.100Z,35.23
2023-05-03T17:39:05.669Z,34.35
2023-05-03T17:40:08.133Z,35.12
2023-05-03T17:41:12.244Z,34.16
2023-05-03T17:42:14.578Z,35.53
2023-05-03T17:43:17.093Z,35.92
2023-05-03T17:44:19.571Z,36.51
2023-05-03T17:45:23.612Z,36.23
2023-05-03T17:46:25.999Z,36.26
2023-05-03T17:47:30.023Z,36.50
2023-05-03T17:48:34.234Z,36.60
2023-05-03T17:49:38.105Z,36.25
2023-05-03T17:50:42.107Z,36.21
2023-05-03T17:51:46.123Z,36.52
2023-05-03T17:52:48.394Z,37.47
2023-05-03T17:53:52.482Z,37.81
2023-05-03T17:54:56.417Z,37.44
2023-05-03T17:56:00.375Z,38.14
2023-05-03T17:57:04.395Z,38.93
2023-05-03T17:58:06.798Z,38.42
2023-05-03T17:59:10.791Z,38.44
2023-05-03T18:00:13.108Z,37.68
2023-05-03T18:01:15.966Z,38.85
2023-05-03T18:02:19.740Z,38.63
2023-05-03T18:03:22.060Z,39.80
2023-05-03T18:04:24.455Z,39.10
2023-05-03T18:05:28.592Z,39.72
2023-05-03T18:06:32.460Z,39.89
2023-05-03T18:07:36.435Z,41.27
2023-05-03T18:08:38.861Z,42.01
2023-05-03T18:09:41.377Z,42.25
2023-05-03T18:10:45.383Z,41.46
2023-05-03T18:11:49.521Z,41.67
2023-05-03T18:12:51.805Z,42.72
2023-05-03T18:13:54.270Z,43.21
2023-05-03T18:14:56.651Z,42.28
2023-05-03T18:16:00.793Z,43.28
2023-05-03T18:17:04.926Z,43.99
2023-05-03T18:18:08.889Z,44.10
2023-05-03T18:19:11.197Z,44.32
2023-05-03T18:20:13.720Z,44.42
2023-05-03T18:21:17.753Z,44.64
2023-05-03T18:22:20.069Z,44.74
2023-05-03T18:23:22.498Z,45.50
2023-05-03T18:24:24.949Z,45.20
2023-05-03T18:25:27.438Z,45.19
2023-05-03T18:26:29.950Z,44.73
2023-05-03T18:27:32.712Z,44.65
2023-05-03T18:28:35.202Z,44.34
2023-05-03T18:29:39.225Z,45.20
2023-05-03T18:30:43.190Z,44.29
2023-05-03T18:31:47.183Z,44.91
2023-05-03T18:32:51.025Z,44.74
2023-05-03T18:33:53.322Z,44.42
2023-05-03T18:34:55.773Z,44.79
2023-05-03T18:36:00.127Z,44.77
2023-05-03T18:37:02.427Z,45.78
2023-05-03T18:38:06.460Z,45.51
2023-05-03T18:39:08.811Z,45.46
2023-05-03T18:40:12.858Z,45.57
2023-05-03T18:41:16.843Z,47.23
2023-05-03T18:42:19.132Z,46.55
2023-05-03T18:43:21.766Z,46.60
2023-05-03T18:44:24.091Z,46.52
2023-05-03T18:45:28.072Z,46.70
2023-05-03T18:46:30.504Z,47.38
2023-05-03T18:47:32.965Z,46.97
2023-05-03T18:48:36.922Z,47.07
2023-05-03T18:49:39.234Z,47.20
2023-05-03T18:50:43.301Z,47.70
2023-05-03T18:51:47.233Z,47.46
2023-05-03T19:01:18.189Z,49.82
2023-05-03T19:02:22.189Z,49.58
2023-05-03T19:11:53.002Z,50.64
2023-05-03T19:12:55.648Z,50.47
2023-05-03T19:22:29.421Z,51.11
2023-05-03T19:32:04.131Z,50.27
2023-05-03T19:41:37.739Z,50.01
2023-05-03T19:51:09.941Z,50.36
2023-05-03T20:00:45.838Z,49.58
2023-05-03T20:10:19.633Z,50.02
2023-05-03T20:19:53.481Z,52.44
2023-05-03T20:29:27.294Z,51.87
2023-05-03T20:38:59.325Z,53.37
2023-05-03T20:48:33.332Z,52.95
2023-05-03T20:58:07.521Z,54.30
2023-05-03T21:07:42.965Z,55.82
2023-05-03T21:17:14.972Z,56.01
2023-05-03T21:26:49.542Z,57.33
2023-05-03T21:36:24.919Z,57.53
2023-05-03T21:45:59.077Z,58.78
2023-05-03T21:55:32.848Z,59.30
2023-05-03T22:05:05.089Z,59.42
2023-05-03T22:14:39.398Z,60.01
2023-05-03T22:24:13.720Z,60.88
2023-05-03T22:33:49.399Z,61.48
2023-05-03T22:43:23.028Z,62.17
2023-05-03T22:52:57.052Z,62.72
2023-05-03T23:02:28.814Z,63.37
2023-05-03T23:12:04.372Z,63.99
2023-05-03T23:21:36.215Z,63.90
2023-05-03T23:31:10.414Z,64.49
2023-05-03T23:40:45.876Z,65.23
2023-05-03T23:50:19.385Z,65.52
2023-05-03T23:59:53.275Z,65.80
